createdAt,value
2023-05-12T00:01:39.452Z,100980.97
2023-05-12T00:04:07.496Z,100977.19
2023-05-12T00:06:35.237Z,100972.78
2023-05-12T00:09:02.928Z,100969.28
2023-05-12T00:11:30.618Z,100971.44
2023-05-12T00:13:59.608Z,100970.19
2023-05-12T00:16:28.195Z,100978.78
2023-05-12T00:18:56.112Z,100969.34
2023-05-12T00:21:24.102Z,100972.44
2023-05-12T00:23:51.760Z,100963.22
2023-05-12T00:26:19.432Z,100968.22
2023-05-12T00:28:47.622Z,100966.56
2023-05-12T00:31:17.005Z,100973.06
2023-05-12T00:33:44.692Z,100975.78
2023-05-12T00:36:12.525Z,100969.28
2023-05-12T00:38:41.230Z,100972.00
2023-05-12T00:41:09.001Z,100973.66
2023-05-12T00:43:37.138Z,100971.38
2023-05-12T00:46:07.186Z,100973.06
2023-05-12T00:48:36.981Z,100970.94
2023-05-12T00:51:06.148Z,100962.56
2023-05-12T00:53:47.712Z,100969.66
2023-05-12T00:56:19.703Z,100974.28
2023-05-12T00:58:47.680Z,100977.03
2023-05-12T01:01:15.907Z,100976.19
2023-05-12T01:03:45.302Z,100983.56
2023-05-12T01:06:16.593Z,100988.19
2023-05-12T01:08:44.967Z,100990.28
2023-05-12T01:11:12.563Z,100991.31
2023-05-12T01:13:41.152Z,100996.78
2023-05-12T01:16:10.648Z,100994.06
2023-05-12T01:18:39.651Z,100990.72
2023-05-12T01:21:09.595Z,100991.31
2023-05-12T01:23:40.998Z,100983.16
2023-05-12T01:26:10.912Z,100991.72
2023-05-12T01:28:41.040Z,100987.75
2023-05-12T01:31:09.756Z,100990.69
2023-05-12T01:33:37.796Z,100982.72
2023-05-12T01:36:06.246Z,100984.00
2023-05-12T01:38:33.956Z,100989.50
2023-05-12T01:41:02.120Z,100993.25
2023-05-12T01:43:31.119Z,100996.22
2023-05-12T01:45:58.973Z,101001.22
2023-05-12T01:48:26.945Z,101004.81
2023-05-12T01:50:54.805Z,101010.63
2023-05-12T01:53:22.450Z,101001.00
2023-05-12T01:55:50.108Z,101001.22
2023-05-12T01:58:19.418Z,100997.66
2023-05-12T02:00:48.404Z,101008.38
2023-05-12T02:03:16.471Z,101012.97
2023-05-12T02:05:44.289Z,101014.88
2023-05-12T02:08:12.047Z,101009.44
2023-05-12T02:10:39.728Z,101015.50
2023-05-12T02:13:07.316Z,101013.38
2023-05-12T02:15:35.038Z,101015.06
2023-05-12T02:18:04.505Z,101016.78
2023-05-12T02:20:32.273Z,101018.44
2023-05-12T02:23:00.835Z,101012.78
2023-05-12T02:25:28.534Z,101018.44
2023-05-12T02:27:56.180Z,101015.69
2023-05-12T02:30:23.794Z,101026.19
2023-05-12T02:32:51.474Z,101025.56
2023-05-12T02:35:21.309Z,101026.44
2023-05-12T02:37:49.026Z,101033.53
2023-05-12T02:40:17.154Z,101029.31
2023-05-12T02:42:45.509Z,101019.50
2023-05-12T02:45:13.775Z,101013.63
2023-05-12T02:47:41.657Z,101015.13
2023-05-12T02:50:10.253Z,101017.66
2023-05-12T02:52:39.244Z,101006.75
2023-05-12T02:55:07.772Z,100999.41
2023-05-12T02:57:35.823Z,101000.50
2023-05-12T03:00:05.861Z,101003.03
2023-05-12T03:02:34.153Z,100992.97
2023-05-12T03:05:02.099Z,101004.69
2023-05-12T03:07:30.325Z,101004.50
2023-05-12T03:10:00.060Z,101011.38
2023-05-12T03:12:29.257Z,101021.66
2023-05-12T03:14:56.900Z,101018.69
2023-05-12T03:17:24.735Z,101011.16
2023-05-12T03:19:52.345Z,101015.53
2023-05-12T03:22:20.138Z,101009.50
2023-05-12T03:24:47.959Z,101010.78
2023-05-12T03:27:16.905Z,101012.66
2023-05-12T03:29:44.533Z,101018.47
2023-05-12T03:32:12.322Z,101018.06
2023-05-12T03:34:40.036Z,101020.97
2023-05-12T03:37:07.887Z,101024.34
2023-05-12T03:39:35.649Z,101021.84
2023-05-12T03:42:03.392Z,101029.38
2023-05-12T03:44:32.305Z,101028.13
2023-05-12T03:47:00.102Z,101026.25
2023-05-12T03:49:27.807Z,101029.34
2023-05-12T03:51:55.579Z,101031.03
2023-05-12T03:54:23.293Z,101027.47
2023-05-12T03:56:50.999Z,101026.44
2023-05-12T03:59:18.662Z,101024.75
2023-05-12T04:01:47.723Z,101020.97
2023-05-12T04:04:15.770Z,101026.66
2023-05-12T04:06:43.568Z,101031.06
2023-05-12T04:09:13.226Z,101042.78
2023-05-12T04:11:40.906Z,101038.59
2023-05-12T04:14:08.633Z,101046.53
2023-05-12T04:16:36.800Z,101044.84
2023-05-12T04:19:05.841Z,101063.66
2023-05-12T04:21:33.581Z,101064.09
2023-05-12T04:24:01.279Z,101065.75
2023-05-12T04:26:28.996Z,101069.56
2023-05-12T04:28:56.754Z,101075.00
2023-05-12T04:31:24.395Z,101057.84
2023-05-12T04:33:52.099Z,101066.66
2023-05-12T04:36:21.160Z,101074.59
2023-05-12T04:38:49.132Z,101075.63
2023-05-12T04:41:17.048Z,101073.78
2023-05-12T04:46:15.512Z,101080.28
2023-05-12T04:48:43.579Z,101092.66
2023-05-12T04:51:11.539Z,101091.59
2023-05-12T04:53:40.997Z,101101.06
2023-05-12T04:56:08.923Z,101093.28
2023-05-12T04:58:36.882Z,101096.19
2023-05-12T05:01:05.075Z,101104.81
2023-05-12T05:03:33.009Z,101097.28
2023-05-12T05:06:00.816Z,101096.41
2023-05-12T05:08:28.536Z,101101.03
2023-05-12T05:10:57.533Z,101108.56
2023-05-12T05:13:25.202Z,101111.50
2023-05-12T05:15:53.390Z,101112.31
2023-05-12T05:18:24.058Z,101122.16
2023-05-12T05:20:57.852Z,101113.59
2023-05-12T05:23:26.642Z,101123.84
2023-05-12T05:25:54.426Z,101123.03
2023-05-12T05:28:23.484Z,101116.72
2023-05-12T05:30:51.235Z,101122.81
2023-05-12T05:33:18.816Z,101124.69
2023-05-12T05:35:48.012Z,101129.94
2023-05-12T05:38:15.753Z,101132.25
2023-05-12T05:40:53.170Z,101132.69
2023-05-12T05:43:23.075Z,101136.63
2023-05-12T05:45:51.310Z,101133.25
2023-05-12T05:48:19.285Z,101134.31
2023-05-12T05:50:47.078Z,101127.38
2023-05-12T05:53:14.775Z,101129.44
2023-05-12T05:55:42.428Z,101135.91
2023-05-12T05:58:10.251Z,101134.84
2023-05-12T06:00:39.448Z,101136.53
2023-05-12T06:03:07.460Z,101142.63
2023-05-12T06:05:35.283Z,101141.38
2023-05-12T06:08:02.999Z,101145.50
2023-05-12T06:10:30.736Z,101136.28
2023-05-12T06:12:58.439Z,101147.59
2023-05-12T06:15:26.027Z,101146.75
2023-05-12T06:17:55.165Z,101150.31
2023-05-12T06:20:23.427Z,101148.63
2023-05-12T06:22:51.176Z,101155.75
2023-05-12T06:25:19.224Z,101152.00
2023-05-12T06:27:47.113Z,101157.69
2023-05-12T06:30:16.396Z,101164.78
2023-05-12T06:32:44.280Z,101166.69
2023-05-12T06:35:13.463Z,101167.16
2023-05-12T06:37:41.074Z,101165.91
2023-05-12T06:40:09.539Z,101173.66
2023-05-12T06:42:37.299Z,101172.19
2023-05-12T06:45:05.699Z,101170.69
2023-05-12T06:47:33.657Z,101174.91
2023-05-12T06:50:01.759Z,101171.13
2023-05-12T06:52:30.720Z,101162.97
2023-05-12T06:54:58.560Z,101171.34
2023-05-12T06:57:26.339Z,101168.84
2023-05-12T06:59:54.049Z,101171.75
2023-05-12T07:02:21.946Z,101173.41
2023-05-12T07:04:49.735Z,101174.66
2023-05-12T07:07:17.314Z,101175.06
2023-05-12T07:09:46.296Z,101181.53
2023-05-12T07:12:13.929Z,101179.47
2023-05-12T07:14:41.536Z,101175.28
2023-05-12T07:17:09.135Z,101172.94
2023-05-12T07:19:37.076Z,101176.09
2023-05-12T07:22:05.011Z,101180.69
2023-05-12T07:24:32.654Z,101175.41
2023-05-12T07:27:02.531Z,101173.69
2023-05-12T07:29:30.198Z,101172.66
2023-05-12T07:31:57.875Z,101177.66
2023-05-12T07:34:25.764Z,101170.50
2023-05-12T07:36:53.621Z,101174.03
2023-05-12T07:39:23.575Z,101171.47
2023-05-12T07:41:53.510Z,101176.50
2023-05-12T07:44:22.546Z,101172.72
2023-05-12T07:46:50.575Z,101171.66
2023-05-12T07:49:18.244Z,101178.94
2023-05-12T07:51:45.934Z,101177.69
2023-05-12T07:54:13.696Z,101174.75
2023-05-12T07:56:41.425Z,101175.28
2023-05-12T07:59:09.131Z,101179.41
2023-05-12T08:01:38.216Z,101174.94
2023-05-12T08:04:06.693Z,101186.44
2023-05-12T08:06:34.427Z,101174.66
2023-05-12T08:09:02.044Z,101179.53
2023-05-12T08:11:29.858Z,101179.09
2023-05-12T08:13:57.454Z,101179.88
2023-05-12T08:16:25.101Z,101178.13
2023-05-12T08:18:54.461Z,101176.84
2023-05-12T08:21:22.253Z,101182.72
2023-05-12T08:23:49.862Z,101180.59
2023-05-12T08:26:17.455Z,101186.59
2023-05-12T08:28:45.009Z,101178.81
2023-05-12T08:31:13.104Z,101180.16
2023-05-12T08:33:40.815Z,101187.59
2023-05-12T08:36:09.930Z,101183.81
2023-05-12T08:38:37.720Z,101186.25
2023-05-12T08:41:13.372Z,101190.16
2023-05-12T08:43:45.174Z,101188.16
2023-05-12T08:46:12.962Z,101179.16
2023-05-12T08:48:41.488Z,101179.31
2023-05-12T08:51:12.826Z,101184.06
2023-05-12T08:53:42.415Z,101182.34
2023-05-12T08:58:43.709Z,101178.25
2023-05-12T09:01:14.666Z,101178.88
2023-05-12T09:03:44.218Z,101179.84
2023-05-12T09:06:14.899Z,101180.69
2023-05-12T09:08:42.878Z,101179.75
2023-05-12T09:11:13.329Z,101178.13
2023-05-12T09:13:49.618Z,101176.56
2023-05-12T09:16:20.496Z,101184.06
2023-05-12T09:18:51.483Z,101187.63
2023-05-12T09:21:20.788Z,101178.84
2023-05-12T09:23:59.497Z,101179.25
2023-05-12T09:26:28.815Z,101184.72
2023-05-12T09:29:06.260Z,101183.19
2023-05-12T09:31:34.160Z,101184.38
2023-05-12T09:34:02.413Z,101183.53
2023-05-12T09:36:35.332Z,101186.19
2023-05-12T09:39:05.306Z,101183.34
2023-05-12T09:41:36.126Z,101177.16
2023-05-12T09:44:04.739Z,101182.91
2023-05-12T09:46:32.589Z,101176.06
2023-05-12T09:49:01.069Z,101179.28
2023-05-12T09:51:29.200Z,101191.19
2023-05-12T09:53:58.300Z,101186.31
2023-05-12T09:56:28.878Z,101184.78
2023-05-12T09:58:57.931Z,101180.38
2023-05-12T10:01:26.379Z,101189.53
2023-05-12T10:03:55.830Z,101186.09
2023-05-12T10:06:28.081Z,101187.06
2023-05-12T10:09:05.185Z,101186.94
2023-05-12T10:11:36.698Z,101185.38
2023-05-12T10:14:06.582Z,101181.91
2023-05-12T10:16:34.711Z,101186.31
2023-05-12T10:19:04.329Z,101190.97
2023-05-12T10:21:32.721Z,101187.50
2023-05-12T10:24:05.952Z,101194.66
2023-05-12T10:26:34.893Z,101190.50
2023-05-12T10:29:03.245Z,101194.66
2023-05-12T10:31:33.752Z,101199.44
2023-05-12T10:34:03.355Z,101187.69
2023-05-12T10:36:31.458Z,101190.81
2023-05-12T10:39:07.071Z,101190.06
2023-05-12T10:41:36.177Z,101178.63
2023-05-12T10:44:03.763Z,101187.56
2023-05-12T10:46:31.644Z,101191.22
2023-05-12T10:49:00.954Z,101194.53
2023-05-12T10:51:30.338Z,101182.50
2023-05-12T10:53:59.356Z,101193.91
2023-05-12T10:56:30.516Z,101196.88
2023-05-12T10:59:17.387Z,101193.06
2023-05-12T11:02:03.109Z,101198.66
2023-05-12T11:04:41.647Z,101196.28
2023-05-12T11:07:11.712Z,101196.94
2023-05-12T11:09:53.094Z,101200.19
2023-05-12T11:12:27.631Z,101196.22
2023-05-12T11:14:55.588Z,101186.50
2023-05-12T11:17:23.340Z,101186.94
2023-05-12T11:19:52.453Z,101196.59
2023-05-12T11:22:22.460Z,101197.84
2023-05-12T11:24:52.381Z,101176.22
2023-05-12T11:27:22.475Z,101189.19
2023-05-12T11:29:58.332Z,101186.03
2023-05-12T11:32:26.260Z,101188.72
2023-05-12T11:34:54.103Z,101195.94
2023-05-12T11:37:21.854Z,101190.03
2023-05-12T11:39:50.028Z,101187.03
2023-05-12T11:42:19.704Z,101194.00
2023-05-12T11:44:50.096Z,101188.84
2023-05-12T11:47:22.138Z,101181.81
2023-05-12T11:49:53.116Z,101190.94
2023-05-12T11:52:24.891Z,101186.09
2023-05-12T11:54:54.075Z,101188.41
2023-05-12T11:57:28.285Z,101180.53
2023-05-12T12:00:01.787Z,101185.97
2023-05-12T12:02:32.613Z,101185.88
2023-05-12T12:05:00.767Z,101183.53
2023-05-12T12:07:32.422Z,101178.41
2023-05-12T12:10:03.432Z,101183.31
2023-05-12T12:12:31.267Z,101187.94
2023-05-12T12:15:00.257Z,101188.28
2023-05-12T12:17:30.959Z,101195.78
2023-05-12T12:20:00.260Z,101198.31
2023-05-12T12:22:32.500Z,101195.75
2023-05-12T12:25:01.636Z,101197.34
2023-05-12T12:27:29.495Z,101203.09
2023-05-12T12:29:57.701Z,101200.81
2023-05-12T12:32:26.039Z,101201.13
2023-05-12T12:34:53.733Z,101200.47
2023-05-12T12:37:22.714Z,101196.81
2023-05-12T12:39:50.353Z,101187.00
2023-05-12T12:42:18.106Z,101189.41
2023-05-12T12:44:50.150Z,101192.09
2023-05-12T12:47:19.035Z,101191.16
2023-05-12T12:49:46.812Z,101181.50
2023-05-12T12:52:14.708Z,101181.16
2023-05-12T12:54:43.781Z,101184.13
2023-05-12T12:57:11.404Z,101178.28
2023-05-12T12:59:39.075Z,101190.97
2023-05-12T13:02:07.069Z,101179.63
2023-05-12T13:04:34.802Z,101175.72
2023-05-12T13:07:02.533Z,101179.63
2023-05-12T13:09:30.567Z,101180.09
2023-05-12T13:12:00.927Z,101171.41
2023-05-12T13:14:28.856Z,101176.78
2023-05-12T13:16:56.551Z,101173.97
2023-05-12T13:19:24.226Z,101171.63
2023-05-12T13:21:52.136Z,101173.75
2023-05-12T13:24:19.817Z,101178.47
2023-05-12T13:26:47.497Z,101179.16
2023-05-12T13:29:16.623Z,101178.50
2023-05-12T13:31:45.760Z,101173.22
2023-05-12T13:34:13.957Z,101175.59
2023-05-12T13:36:41.943Z,101168.63
2023-05-12T13:39:10.118Z,101161.09
2023-05-12T13:41:37.917Z,101167.31
2023-05-12T13:44:06.240Z,101168.88
2023-05-12T13:46:35.572Z,101170.28
2023-05-12T13:49:03.580Z,101174.44
2023-05-12T13:51:32.380Z,101165.97
2023-05-12T13:54:00.222Z,101172.03
2023-05-12T13:56:27.809Z,101170.81
2023-05-12T13:58:55.583Z,101170.44
2023-05-12T14:01:23.306Z,101179.75
2023-05-12T14:03:52.540Z,101167.78
2023-05-12T14:06:20.209Z,101167.41
2023-05-12T14:08:48.263Z,101166.50
2023-05-12T14:11:16.736Z,101167.53
2023-05-12T14:13:44.462Z,101154.03
2023-05-12T14:16:13.930Z,101176.31
2023-05-12T14:18:43.356Z,101156.31
2023-05-12T14:21:12.905Z,101156.06
2023-05-12T14:23:40.506Z,101158.31
2023-05-12T14:26:08.172Z,101148.38
2023-05-12T14:28:36.020Z,101158.06
2023-05-12T14:31:03.871Z,101159.69
2023-05-12T14:33:32.266Z,101162.09
2023-05-12T14:36:07.168Z,101172.09
2023-05-12T14:38:37.862Z,101159.88
2023-05-12T14:41:08.078Z,101165.13
2023-05-12T14:43:35.865Z,101163.97
2023-05-12T14:46:04.383Z,101162.09
2023-05-12T14:48:32.261Z,101166.03
2023-05-12T14:51:00.296Z,101156.16
2023-05-12T14:53:27.971Z,101150.63
2023-05-12T14:55:56.955Z,101156.06
2023-05-12T14:58:24.954Z,101165.78
2023-05-12T15:00:54.307Z,101163.81
2023-05-12T15:03:22.389Z,101169.88
2023-05-12T15:08:21.577Z,101171.06
2023-05-12T15:10:49.790Z,101180.69
2023-05-12T15:13:20.373Z,101181.25
2023-05-12T15:15:48.329Z,101177.03
2023-05-12T15:18:16.283Z,101183.38
2023-05-12T15:20:43.950Z,101175.44
2023-05-12T15:23:11.562Z,101172.97
2023-05-12T15:25:40.158Z,101169.31
2023-05-12T15:28:08.310Z,101182.19
2023-05-12T15:30:37.322Z,101171.81
2023-05-12T15:33:05.899Z,101175.50
2023-05-12T15:35:33.678Z,101166.88
2023-05-12T15:38:01.551Z,101165.56
2023-05-12T15:40:30.608Z,101162.03
2023-05-12T15:42:58.319Z,101173.28
2023-05-12T15:45:26.063Z,101168.25
2023-05-12T15:47:56.203Z,101177.53
2023-05-12T15:50:24.560Z,101180.84
2023-05-12T15:52:52.689Z,101177.22
2023-05-12T15:55:21.510Z,101175.31
2023-05-12T15:57:50.220Z,101180.34
2023-05-12T16:00:19.394Z,101173.81
2023-05-12T16:02:47.776Z,101180.97
2023-05-12T16:05:17.188Z,101175.09
2023-05-12T16:07:44.839Z,101181.38
2023-05-12T16:10:12.476Z,101173.88
2023-05-12T16:12:40.822Z,101173.56
2023-05-12T16:15:09.559Z,101172.69
2023-05-12T16:17:37.190Z,101172.09
2023-05-12T16:20:05.749Z,101169.34
2023-05-12T16:22:35.202Z,101169.03
2023-05-12T16:25:02.768Z,101175.63
2023-05-12T16:27:31.969Z,101176.47
2023-05-12T16:29:59.704Z,101169.25
2023-05-12T16:32:27.454Z,101169.00
2023-05-12T16:34:56.023Z,101163.16
2023-05-12T16:37:23.889Z,101162.59
2023-05-12T16:39:53.050Z,101164.47
2023-05-12T16:42:21.036Z,101163.66
2023-05-12T16:44:48.775Z,101159.50
2023-05-12T16:47:16.470Z,101160.03
2023-05-12T16:49:44.402Z,101170.47
2023-05-12T16:52:12.629Z,101167.97
2023-05-12T16:54:40.368Z,101170.34
2023-05-12T16:57:09.396Z,101167.91
2023-05-12T16:59:38.631Z,101168.13
2023-05-12T17:02:08.444Z,101175.88
2023-05-12T17:04:36.508Z,101178.94
2023-05-12T17:07:04.217Z,101169.00
2023-05-12T17:09:31.939Z,101176.44
2023-05-12T17:11:59.696Z,101176.34
2023-05-12T17:14:28.587Z,101180.94
2023-05-12T17:16:56.504Z,101184.72
2023-05-12T17:19:24.793Z,101183.56
2023-05-12T17:21:52.816Z,101195.13
2023-05-12T17:24:20.740Z,101186.53
2023-05-12T17:29:16.040Z,101185.31
2023-05-12T17:31:45.138Z,101191.34
2023-05-12T17:34:12.979Z,101188.28
2023-05-12T17:36:40.923Z,101200.91
2023-05-12T17:39:08.749Z,101201.56
2023-05-12T17:41:36.561Z,101202.34
2023-05-12T17:44:04.878Z,101199.00
2023-05-12T17:46:32.784Z,101199.00
2023-05-12T17:49:01.792Z,101198.78
2023-05-12T17:51:30.675Z,101197.38
2023-05-12T17:53:58.435Z,101206.97
2023-05-12T17:56:26.478Z,101197.59
2023-05-12T17:58:54.498Z,101206.13
2023-05-12T18:01:22.373Z,101208.06
2023-05-12T18:03:50.100Z,101204.72
2023-05-12T18:06:19.058Z,101209.06
2023-05-12T18:08:47.189Z,101206.00
2023-05-12T18:11:15.142Z,101207.81
2023-05-12T18:13:42.912Z,101215.53
2023-05-12T18:16:21.272Z,101216.34
2023-05-12T18:18:55.914Z,101216.84
2023-05-12T18:21:25.237Z,101209.75
2023-05-12T18:23:52.891Z,101215.59
2023-05-12T18:26:20.868Z,101216.69
2023-05-12T18:28:48.844Z,101209.50
2023-05-12T18:31:19.541Z,101214.09
2023-05-12T18:33:48.511Z,101212.84
2023-05-12T18:36:16.937Z,101220.75
2023-05-12T18:38:46.573Z,101222.09
2023-05-12T18:41:14.208Z,101227.25
2023-05-12T18:43:44.179Z,101232.19
2023-05-12T18:46:12.439Z,101226.09
2023-05-12T18:48:40.337Z,101233.78
2023-05-12T18:51:08.142Z,101235.09
2023-05-12T18:53:35.957Z,101237.25
2023-05-12T18:56:05.022Z,101244.69
2023-05-12T18:58:32.836Z,101246.84
2023-05-12T19:01:00.637Z,101245.44
2023-05-12T19:03:28.758Z,101252.25
2023-05-12T19:05:56.691Z,101254.44
2023-05-12T19:08:24.463Z,101249.31
2023-05-12T19:10:52.335Z,101255.94
2023-05-12T19:13:21.640Z,101255.94
2023-05-12T19:15:49.571Z,101263.31
2023-05-12T19:18:17.655Z,101263.56
2023-05-12T19:20:45.573Z,101274.81
2023-05-12T19:23:13.495Z,101268.97
2023-05-12T19:25:42.928Z,101264.00
2023-05-12T19:28:12.147Z,101269.66
2023-05-12T19:30:41.325Z,101264.66
2023-05-12T19:33:09.206Z,101272.03
2023-05-12T19:35:37.372Z,101273.53
2023-05-12T19:38:05.238Z,101277.25
2023-05-12T19:40:33.424Z,101271.75
2023-05-12T19:43:01.984Z,101283.09
2023-05-12T19:45:30.350Z,101280.50
2023-05-12T19:48:03.051Z,101281.91
2023-05-12T19:50:30.911Z,101287.50
2023-05-12T19:52:59.122Z,101278.78
2023-05-12T19:55:26.886Z,101287.00
2023-05-12T19:57:54.742Z,101295.25
2023-05-12T20:00:22.519Z,101290.63
2023-05-12T20:02:50.879Z,101299.94
2023-05-12T20:05:20.961Z,101294.94
2023-05-12T20:07:49.543Z,101299.22
2023-05-12T20:10:17.569Z,101301.03
2023-05-12T20:12:45.322Z,101304.00
2023-05-12T20:15:13.266Z,101298.41
2023-05-12T20:17:41.102Z,101313.72
2023-05-12T20:20:11.678Z,101311.47
2023-05-12T20:22:41.014Z,101308.63
2023-05-12T20:25:12.436Z,101314.56
2023-05-12T20:27:40.133Z,101315.69
2023-05-12T20:30:09.446Z,101313.41
2023-05-12T20:32:37.593Z,101310.53
2023-05-12T20:35:06.540Z,101315.84
2023-05-12T20:37:34.431Z,101311.78
2023-05-12T20:40:05.491Z,101317.03
2023-05-12T20:42:33.313Z,101315.63
2023-05-12T20:45:01.259Z,101315.00
2023-05-12T20:47:30.803Z,101320.50
2023-05-12T20:50:00.598Z,101312.75
2023-05-12T20:52:29.018Z,101314.88
2023-05-12T20:54:58.710Z,101316.19
2023-05-12T20:57:28.015Z,101326.84
2023-05-12T20:59:56.976Z,101325.63
2023-05-12T21:02:24.960Z,101323.09
2023-05-12T21:04:52.835Z,101325.25
2023-05-12T21:07:21.137Z,101327.63
2023-05-12T21:09:48.815Z,101328.81
2023-05-12T21:12:16.445Z,101334.88
2023-05-12T21:14:46.252Z,101326.75
2023-05-12T21:17:13.964Z,101331.63
2023-05-12T21:19:41.885Z,101330.81
2023-05-12T21:22:10.367Z,101335.91
2023-05-12T21:24:39.364Z,101342.72
2023-05-12T21:27:08.044Z,101340.22
2023-05-12T21:29:36.396Z,101345.94
2023-05-12T21:32:06.093Z,101343.44
2023-05-12T21:34:35.948Z,101340.78
2023-05-12T21:37:03.840Z,101344.81
2023-05-12T21:39:31.446Z,101353.59
2023-05-12T21:41:59.066Z,101348.25
2023-05-12T21:44:26.762Z,101353.41
2023-05-12T21:46:54.462Z,101349.59
2023-05-12T21:49:23.481Z,101351.84
2023-05-12T21:51:51.651Z,101351.72
2023-05-12T21:54:19.356Z,101357.28
2023-05-12T21:56:47.075Z,101347.00
2023-05-12T21:59:14.716Z,101350.81
2023-05-12T22:01:42.844Z,101354.03
2023-05-12T22:04:11.079Z,101352.19
2023-05-12T22:06:40.203Z,101347.66
2023-05-12T22:09:07.868Z,101355.03
2023-05-12T22:11:35.606Z,101354.19
2023-05-12T22:14:04.185Z,101355.69
2023-05-12T22:16:41.299Z,101354.69
2023-05-12T22:19:10.068Z,101359.44
2023-05-12T22:21:38.027Z,101363.69
2023-05-12T22:24:07.818Z,101364.38
2023-05-12T22:26:35.622Z,101361.47
2023-05-12T22:29:03.271Z,101367.81
2023-05-12T22:31:30.968Z,101373.13
2023-05-12T22:33:58.628Z,101367.66
2023-05-12T22:36:26.440Z,101377.56
2023-05-12T22:38:54.032Z,101377.16
2023-05-12T22:41:23.126Z,101372.16
2023-05-12T22:43:50.809Z,101376.19
2023-05-12T22:46:18.684Z,101374.50
2023-05-12T22:48:46.480Z,101376.03
2023-05-12T22:51:14.260Z,101373.88
2023-05-12T22:53:42.217Z,101375.78
2023-05-12T22:56:09.961Z,101378.28
2023-05-12T22:58:39.193Z,101378.91
2023-05-12T23:01:07.323Z,101382.25
2023-05-12T23:03:35.150Z,101382.25
2023-05-12T23:06:03.139Z,101382.72
2023-05-12T23:08:30.808Z,101378.59
2023-05-12T23:10:58.451Z,101376.97
2023-05-12T23:13:26.214Z,101383.00
2023-05-12T23:15:55.402Z,101385.00
2023-05-12T23:18:23.268Z,101380.63
2023-05-12T23:20:50.899Z,101379.25
2023-05-12T23:23:18.630Z,101388.94
2023-05-12T23:25:47.689Z,101378.44
2023-05-12T23:28:15.370Z,101382.06
2023-05-12T23:30:43.028Z,101379.78
2023-05-12T23:33:12.139Z,101381.28
2023-05-12T23:35:39.997Z,101379.19
2023-05-12T23:38:07.905Z,101377.97
2023-05-12T23:40:38.912Z,101371.28
2023-05-12T23:43:06.793Z,101368.59
2023-05-12T23:45:34.902Z,101380.41
2023-05-12T23:48:02.686Z,101378.72
2023-05-12T23:50:31.774Z,101378.13
2023-05-12T23:52:59.382Z,101375.59
2023-05-12T23:55:27.039Z,101376.03
2023-05-12T23:57:54.607Z,101382.16
